Lewistown, MT

12:02 PM MDT on March 30, 2017 (GMT -0600)
Lewistown Municipal | | Change Station

Elev 4167 ft 47.05 °N, 109.47 °W | Updated 8 minutes ago

Overcast
Overcast
49 °F
Feels Like 49 °F
N
5
Wind Variable Wind from South

Today
High -- | Low -- °F
--% Chance of Precip.
Yesterday
High -- | Low -- °F
Precip. -- in
Pressure 29.73 in
Visibility 10.0 miles
Clouds Few 4800 ft
Scattered Clouds 6000 ft
Overcast 8000 ft
Dew Point 33 °F
Humidity 54%
Rainfall 0.00 in
Snow Depth Not available.
7:00 AM 7:44 PM
Waxing Crescent, 10% visible
METAR KLWT 301754Z AUTO 18004KT 10SM FEW048 SCT060 OVC080 09/01 A2974 RMK AO2 RAE04 SLP067 P0000 60000 T00940006 10094 20028 51006
Pressure 29.73 in
Visibility 10.0 miles
Clouds Few 4800 ft
Scattered Clouds 6000 ft
Overcast 8000 ft
Dew Point 33 °F
Humidity 54%
Rainfall 0.00 in
Snow Depth Not available.
7:00 AM 7:44 PM
Waxing Crescent, 10% visible
METAR KLWT 301754Z AUTO 18004KT 10SM FEW048 SCT060 OVC080 09/01 A2974 RMK AO2 RAE04 SLP067 P0000 60000 T00940006 10094 20028 51006

Get Severe Weather Alerts

Thanks for signing up!

Be on the lookout for a verification email in your inbox.

You'll start receiving the daily forecast at 8 AM.

×

10-Day Weather Forecast

Almanac

Astronomy

Mar. 30, 2017 Rise Set
Actual Time
Civil Twilight
Nautical Twilight
Astronomical Twilight
Moon
Length of Visible Light
Length of Day
Tomorrow will be .
, % of the Moon is Illuminated

Today's Extremes

State Highs State Lows

Community

WunderPhotos

Upload Photos

1,962,540 photos uploaded!

WunderBlog® & News

Nearby

Air Quality

  Air Quality AQ Index Pollutant
Not available.

Snow Depth

Station Depth Elevation

Earthquake Activity

City Distance Mag. Time & Date
Minimum magnitude displayed is 2.5.

Earthquake Activity

City Distance Mag. Time & Date
Minimum magnitude displayed is 2.5.

Coastal Water Temperatures

Place Temperature

Stations

Nearby Weather Stations

Station Location Temp. Windchill Dew Point Humidity Wind Precip. Elev Updated Type
                   

Watches & Warnings

There are currently no watches in effect.